Time;durP1;ratioP1;P1;durP2;ratioP2;P2;SDS_P1;SDS_P2;PMS_P1;PMS_P2;Temp;Humidity;BMP_temperature;BMP_pressure;BME280_temperature;BME280_humidity;BME280_pressure;Samples;Min_cycle;Max_cycle;Signal;HPM_P1;HPM_P2
2022/12/16 00:00:14;;;;;;;4.93;3.00;;;-0.60;99.90;;;;;;4994306;28;20023;-69
2022/12/16 00:02:41;;;;;;;6.55;3.08;;;-0.60;99.90;;;;;;4994146;28;20027;-68
2022/12/16 00:05:07;;;;;;;5.07;3.28;;;-0.50;99.90;;;;;;4992954;28;20026;-69
2022/12/16 00:07:33;;;;;;;6.78;3.60;;;-0.50;99.90;;;;;;4994352;28;20026;-68
2022/12/16 00:09:58;;;;;;;6.50;3.60;;;-0.50;99.90;;;;;;4993912;28;20370;-69
2022/12/16 00:12:24;;;;;;;8.98;3.30;;;-0.50;99.90;;;;;;4993512;28;20022;-69
2022/12/16 00:14:50;;;;;;;6.60;3.92;;;-0.50;99.90;;;;;;4994303;28;20035;-68
2022/12/16 00:17:15;;;;;;;5.38;2.92;;;-0.50;99.90;;;;;;4993952;28;20057;-69
2022/12/16 00:19:41;;;;;;;4.68;2.92;;;-0.60;99.90;;;;;;4994017;28;20425;-69
2022/12/16 00:22:06;;;;;;;4.68;3.25;;;-0.50;99.90;;;;;;4993519;28;20038;-69
2022/12/16 00:24:32;;;;;;;5.22;3.17;;;-0.60;99.90;;;;;;4993971;28;20072;-69
2022/12/16 00:26:57;;;;;;;6.30;3.75;;;-0.50;99.90;;;;;;4994102;28;20031;-68
2022/12/16 00:29:23;;;;;;;5.43;2.90;;;-0.50;99.90;;;;;;4993793;28;20026;-69
2022/12/16 00:31:48;;;;;;;14.85;3.25;;;-0.60;99.90;;;;;;4993441;28;20414;-69
2022/12/16 00:34:15;;;;;;;6.13;3.50;;;-0.50;99.90;;;;;;4993787;28;20493;-69
2022/12/16 00:36:42;;;;;;;4.97;3.05;;;-0.50;99.90;;;;;;4994051;28;20026;-68
2022/12/16 00:39:08;;;;;;;5.55;2.83;;;-0.50;99.90;;;;;;4994051;28;20026;-69
2022/12/16 00:41:34;;;;;;;5.45;2.85;;;-0.50;99.90;;;;;;4994331;28;20096;-68
2022/12/16 00:43:59;;;;;;;4.22;2.50;;;-0.50;99.90;;;;;;4993231;28;20561;-69
2022/12/16 00:46:25;;;;;;;6.22;2.88;;;-0.50;99.90;;;;;;4994213;28;20029;-69
2022/12/16 00:48:51;;;;;;;5.05;2.80;;;-0.50;99.90;;;;;;4993606;28;20062;-69
2022/12/16 00:51:16;;;;;;;5.22;2.45;;;-0.50;99.90;;;;;;4993100;28;20034;-69
2022/12/16 00:53:42;;;;;;;4.32;2.65;;;-0.50;99.90;;;;;;4993961;28;20034;-68
2022/12/16 00:56:10;;;;;;;3.42;2.28;;;-0.50;99.90;;;;;;4993901;28;20482;-68
2022/12/16 00:58:36;;;;;;;5.07;2.60;;;-0.50;99.90;;;;;;4992597;28;20023;-69
2022/12/16 01:01:02;;;;;;;5.13;2.72;;;-0.50;99.90;;;;;;4993095;28;20470;-69
2022/12/16 01:03:28;;;;;;;5.45;2.63;;;-0.50;99.90;;;;;;4993693;28;20026;-69
2022/12/16 01:05:53;;;;;;;4.28;2.67;;;-0.50;99.90;;;;;;4989705;28;20560;-69
2022/12/16 01:08:19;;;;;;;3.15;2.67;;;-0.60;99.90;;;;;;4993336;28;20053;-70
2022/12/16 01:10:52;;;;;;;5.80;2.30;;;-0.60;99.90;;;;;;4980514;28;20076;-69
2022/12/16 01:13:19;;;;;;;7.20;3.83;;;-0.70;99.90;;;;;;4993079;28;20062;-69
2022/12/16 01:15:45;;;;;;;5.13;3.28;;;-0.70;99.90;;;;;;4995139;28;20034;-68
2022/12/16 01:18:10;;;;;;;4.13;2.80;;;-0.80;99.90;;;;;;4997253;28;20410;-69
2022/12/16 01:20:37;;;;;;;4.82;3.22;;;-0.90;99.90;;;;;;4997178;28;20438;-68
2022/12/16 01:23:03;;;;;;;11.48;4.25;;;-1.00;99.90;;;;;;4996379;28;20015;-68
2022/12/16 01:25:28;;;;;;;4.82;2.75;;;-1.00;99.90;;;;;;4997272;28;20030;-69
2022/12/16 01:27:54;;;;;;;5.93;3.13;;;-1.00;99.90;;;;;;4996021;28;20031;-69
2022/12/16 01:30:19;;;;;;;5.30;2.95;;;-1.00;99.90;;;;;;4997036;28;20402;-69
2022/12/16 01:32:45;;;;;;;5.25;4.00;;;-1.10;99.90;;;;;;4997052;28;20390;-68
2022/12/16 01:35:12;;;;;;;4.60;3.05;;;-1.10;99.90;;;;;;4996071;28;20415;-69
2022/12/16 01:37:37;;;;;;;7.00;4.43;;;-1.10;99.90;;;;;;4996592;28;20022;-69
2022/12/16 01:40:03;;;;;;;5.70;3.63;;;-1.10;99.90;;;;;;4996347;28;20026;-69
2022/12/16 01:42:32;;;;;;;6.25;4.15;;;-1.10;99.90;;;;;;4995580;28;20041;-69
2022/12/16 01:45:23;;;;;;;9.75;4.57;;;-1.00;99.90;;;;;;4996292;28;20073;-69
2022/12/16 01:47:52;;;;;;;10.40;4.85;;;-1.00;99.90;;;;;;4984672;28;20034;-69
2022/12/16 01:50:18;;;;;;;10.05;4.63;;;-1.00;99.90;;;;;;4983845;28;20022;-69
2022/12/16 01:52:50;;;;;;;9.00;4.55;;;-1.00;99.90;;;;;;4996421;28;20072;-68
2022/12/16 01:55:24;;;;;;;9.48;4.65;;;-1.00;99.90;;;;;;4996353;28;20058;-69
2022/12/16 01:58:14;;;;;;;8.48;4.47;;;-1.00;99.90;;;;;;4982365;28;20066;-69
2022/12/16 02:00:40;;;;;;;10.98;5.82;;;-1.00;99.90;;;;;;4976498;28;20113;-69
2022/12/16 02:03:06;;;;;;;8.63;4.85;;;-1.00;99.90;;;;;;4996462;28;20413;-69
2022/12/16 02:05:39;;;;;;;8.82;4.90;;;-1.00;99.90;;;;;;4996520;28;20026;-68
2022/12/16 02:08:12;;;;;;;8.02;4.90;;;-1.00;99.90;;;;;;4995101;28;20018;-69
2022/12/16 02:10:43;;;;;;;14.48;5.65;;;-1.00;99.90;;;;;;4996114;28;20038;-69
2022/12/16 02:13:30;;;;;;;10.32;4.32;;;-1.10;99.90;;;;;;4996007;28;20034;-68
2022/12/16 02:16:41;;;;;;;11.05;5.40;;;-1.10;99.90;;;;;;4995379;28;20552;-69
2022/12/16 02:19:22;;;;;;;8.30;5.50;;;-1.10;99.90;;;;;;4980336;28;20129;-69
2022/12/16 02:22:25;;;;;;;12.43;5.47;;;-1.10;99.90;;;;;;4995786;28;20069;-69
2022/12/16 02:25:18;;;;;;;14.07;6.03;;;-1.20;99.90;;;;;;4995629;28;20026;-69
2022/12/16 02:28:21;;;;;;;9.55;5.15;;;-1.20;99.90;;;;;;4994467;28;20101;-70
2022/12/16 02:31:19;;;;;;;11.30;5.45;;;-1.20;99.90;;;;;;4985944;28;20040;-68
2022/12/16 02:34:01;;;;;;;8.40;4.88;;;-1.30;99.90;;;;;;4992817;28;20160;-69
2022/12/16 02:36:43;;;;;;;10.32;5.32;;;-1.30;99.90;;;;;;4995715;28;20034;-69
2022/12/16 02:39:18;;;;;;;15.45;4.93;;;-1.30;99.90;;;;;;4995892;28;20076;-69
2022/12/16 02:42:06;;;;;;;8.15;4.88;;;-1.40;99.90;;;;;;4995155;28;20022;-70
2022/12/16 02:44:56;;;;;;;8.77;5.07;;;-1.40;99.90;;;;;;4995354;28;20018;-69
2022/12/16 02:47:23;;;;;;;9.10;5.43;;;-1.40;99.90;;;;;;4994682;28;20501;-69
2022/12/16 02:49:51;;;;;;;9.15;5.88;;;-1.30;99.90;;;;;;4994135;28;20027;-69
2022/12/16 02:52:21;;;;;;;7.47;4.70;;;-1.30;99.90;;;;;;4994478;28;20029;-69
2022/12/16 02:54:50;;;;;;;10.13;4.85;;;-1.30;99.90;;;;;;4994892;28;20023;-69
2022/12/16 02:57:29;;;;;;;9.77;5.40;;;-1.30;99.90;;;;;;4982249;28;20030;-70
2022/12/16 03:00:03;;;;;;;9.70;4.75;;;-1.30;99.90;;;;;;4994674;28;20391;-69
2022/12/16 03:02:56;;;;;;;6.82;4.32;;;-1.30;99.90;;;;;;4995216;28;20026;-69
2022/12/16 03:05:33;;;;;;;7.57;4.80;;;-1.30;99.90;;;;;;4995357;28;20019;-69
2022/12/16 03:08:03;;;;;;;5.97;4.47;;;-1.30;99.90;;;;;;4994690;28;20208;-69
2022/12/16 03:10:36;;;;;;;8.40;4.63;;;-1.30;99.90;;;;;;4995263;28;20517;-69
2022/12/16 03:13:04;;;;;;;9.90;4.03;;;-1.30;99.90;;;;;;4995293;28;20034;-69
2022/12/16 03:15:32;;;;;;;6.80;3.83;;;-1.30;99.90;;;;;;4995159;28;20030;-69
2022/12/16 03:18:00;;;;;;;7.70;3.72;;;-1.30;99.90;;;;;;4994756;28;20133;-69
2022/12/16 03:20:51;;;;;;;10.95;5.18;;;-1.40;99.90;;;;;;4995040;28;20132;-69
2022/12/16 03:23:21;;;;;;;5.40;3.78;;;-1.40;99.90;;;;;;4995094;28;20076;-69
2022/12/16 03:25:49;;;;;;;7.28;3.38;;;-1.30;99.90;;;;;;4994304;28;20469;-69
2022/12/16 03:28:48;;;;;;;5.95;3.78;;;-1.30;99.90;;;;;;4994804;28;20033;-69
2022/12/16 03:31:33;;;;;;;10.02;3.65;;;-1.40;99.90;;;;;;4994976;28;20038;-69
2022/12/16 03:34:09;;;;;;;5.82;3.20;;;-1.40;99.90;;;;;;4994879;28;20026;-69
2022/12/16 03:36:37;;;;;;;8.20;2.92;;;-1.30;99.90;;;;;;4993428;28;20586;-69
2022/12/16 03:39:04;;;;;;;6.90;3.45;;;-1.30;99.90;;;;;;4994450;28;20038;-69
2022/12/16 03:41:32;;;;;;;4.28;3.08;;;-1.30;99.90;;;;;;4993863;28;20029;-69
2022/12/16 03:43:57;;;;;;;7.93;2.72;;;-1.30;99.90;;;;;;4993226;28;20026;-69
2022/12/16 03:46:23;;;;;;;4.13;2.85;;;-1.30;99.90;;;;;;4994532;28;20022;-69
2022/12/16 03:48:50;;;;;;;6.90;2.75;;;-1.40;99.90;;;;;;4994411;28;20478;-69
2022/12/16 03:51:17;;;;;;;6.05;3.47;;;-1.30;99.90;;;;;;4992579;28;20032;-69
2022/12/16 03:53:43;;;;;;;7.03;4.28;;;-1.30;99.90;;;;;;4994647;28;20033;-69
2022/12/16 03:56:10;;;;;;;7.00;3.58;;;-1.40;99.90;;;;;;4994319;28;20026;-69
2022/12/16 03:58:38;;;;;;;6.75;3.58;;;-1.60;99.90;;;;;;4992388;28;20054;-70
2022/12/16 04:01:04;;;;;;;3.95;2.63;;;-1.60;99.90;;;;;;4994454;28;20061;-69
2022/12/16 04:03:29;;;;;;;6.95;3.55;;;-1.60;99.90;;;;;;4994720;28;20037;-69
2022/12/16 04:05:55;;;;;;;6.65;3.45;;;-1.70;99.90;;;;;;4994299;28;20033;-69
2022/12/16 04:08:20;;;;;;;5.45;3.05;;;-1.70;99.90;;;;;;4993891;28;20035;-69
2022/12/16 04:24:31;;;;;;;9.18;3.25;;;-1.70;99.90;;;;;;4994275;28;20030;-69
2022/12/16 04:32:26;;;;;;;5.38;3.03;;;-1.80;99.90;;;;;;4989790;28;20033;-69
2022/12/16 04:34:52;;;;;;;8.07;2.47;;;-1.80;99.90;;;;;;4989318;28;20030;-69
